sensor_id;sensor_type;location;lat;lon;timestamp;temperature;humidity
24472;DHT22;12636;50.852;5.676;2024-01-15T00:00:12;1.00;99.90
24472;DHT22;12636;50.852;5.676;2024-01-15T00:02:39;1.10;99.90
24472;DHT22;12636;50.852;5.676;2024-01-15T00:05:07;1.10;99.90
24472;DHT22;12636;50.852;5.676;2024-01-15T00:07:34;1.10;99.90
24472;DHT22;12636;50.852;5.676;2024-01-15T00:10:01;1.10;99.90
24472;DHT22;12636;50.852;5.676;2024-01-15T00:12:28;1.20;99.90
24472;DHT22;12636;50.852;5.676;2024-01-15T00:14:55;1.20;99.90
24472;DHT22;12636;50.852;5.676;2024-01-15T00:17:22;1.20;99.90
24472;DHT22;12636;50.852;5.676;2024-01-15T00:19:49;1.30;99.90
24472;DHT22;12636;50.852;5.676;2024-01-15T00:22:17;1.30;99.90
24472;DHT22;12636;50.852;5.676;2024-01-15T00:24:45;1.30;99.90
24472;DHT22;12636;50.852;5.676;2024-01-15T00:27:12;1.20;99.90
24472;DHT22;12636;50.852;5.676;2024-01-15T00:29:38;1.30;99.90
24472;DHT22;12636;50.852;5.676;2024-01-15T00:32:05;1.30;99.90
24472;DHT22;12636;50.852;5.676;2024-01-15T00:34:32;1.40;99.90
24472;DHT22;12636;50.852;5.676;2024-01-15T00:36:59;1.40;99.90
24472;DHT22;12636;50.852;5.676;2024-01-15T00:39:28;1.30;99.90
24472;DHT22;12636;50.852;5.676;2024-01-15T00:41:54;1.20;99.90
24472;DHT22;12636;50.852;5.676;2024-01-15T00:44:21;1.10;99.90
24472;DHT22;12636;50.852;5.676;2024-01-15T00:46:48;1.10;99.90
24472;DHT22;12636;50.852;5.676;2024-01-15T00:49:15;1.10;99.90
24472;DHT22;12636;50.852;5.676;2024-01-15T00:51:42;1.00;99.90
24472;DHT22;12636;50.852;5.676;2024-01-15T00:54:09;1.00;99.90
24472;DHT22;12636;50.852;5.676;2024-01-15T00:56:37;1.00;99.90
24472;DHT22;12636;50.852;5.676;2024-01-15T00:59:04;1.00;99.90
24472;DHT22;12636;50.852;5.676;2024-01-15T01:01:31;1.00;99.90
24472;DHT22;12636;50.852;5.676;2024-01-15T01:03:58;1.00;99.90
24472;DHT22;12636;50.852;5.676;2024-01-15T01:06:25;0.90;99.90
24472;DHT22;12636;50.852;5.676;2024-01-15T01:08:52;1.00;99.90
24472;DHT22;12636;50.852;5.676;2024-01-15T01:11:19;0.90;99.90
24472;DHT22;12636;50.852;5.676;2024-01-15T01:13:47;0.90;99.90
24472;DHT22;12636;50.852;5.676;2024-01-15T01:16:14;0.80;99.90
24472;DHT22;12636;50.852;5.676;2024-01-15T01:18:41;0.80;99.90
24472;DHT22;12636;50.852;5.676;2024-01-15T01:21:08;0.80;99.90
24472;DHT22;12636;50.852;5.676;2024-01-15T01:23:34;0.80;99.90
24472;DHT22;12636;50.852;5.676;2024-01-15T01:26:01;0.80;99.90
24472;DHT22;12636;50.852;5.676;2024-01-15T01:28:28;0.70;99.90
24472;DHT22;12636;50.852;5.676;2024-01-15T01:30:57;0.70;99.90
24472;DHT22;12636;50.852;5.676;2024-01-15T01:33:24;0.70;99.90
24472;DHT22;12636;50.852;5.676;2024-01-15T01:35:50;0.70;99.90
24472;DHT22;12636;50.852;5.676;2024-01-15T01:38:18;0.70;99.90
24472;DHT22;12636;50.852;5.676;2024-01-15T01:40:45;0.70;99.90
24472;DHT22;12636;50.852;5.676;2024-01-15T01:43:12;0.70;99.90
24472;DHT22;12636;50.852;5.676;2024-01-15T01:45:39;0.70;99.90
24472;DHT22;12636;50.852;5.676;2024-01-15T01:48:07;0.80;99.90
24472;DHT22;12636;50.852;5.676;2024-01-15T01:50:34;0.80;99.90
24472;DHT22;12636;50.852;5.676;2024-01-15T01:53:01;0.90;99.90
24472;DHT22;12636;50.852;5.676;2024-01-15T01:55:29;0.90;99.90
24472;DHT22;12636;50.852;5.676;2024-01-15T01:57:58;0.90;99.90
24472;DHT22;12636;50.852;5.676;2024-01-15T02:00:26;0.90;99.90
24472;DHT22;12636;50.852;5.676;2024-01-15T02:02:53;0.90;99.90
24472;DHT22;12636;50.852;5.676;2024-01-15T02:05:21;0.90;99.90
24472;DHT22;12636;50.852;5.676;2024-01-15T02:07:48;1.00;99.90
24472;DHT22;12636;50.852;5.676;2024-01-15T02:10:16;1.00;99.90
24472;DHT22;12636;50.852;5.676;2024-01-15T02:12:43;1.10;99.90
24472;DHT22;12636;50.852;5.676;2024-01-15T02:15:11;1.10;99.90
24472;DHT22;12636;50.852;5.676;2024-01-15T02:20:21;1.00;99.90
24472;DHT22;12636;50.852;5.676;2024-01-15T02:22:48;1.00;99.90
24472;DHT22;12636;50.852;5.676;2024-01-15T02:25:16;1.00;99.90
24472;DHT22;12636;50.852;5.676;2024-01-15T02:27:43;1.00;99.90
24472;DHT22;12636;50.852;5.676;2024-01-15T02:30:11;1.00;99.90
24472;DHT22;12636;50.852;5.676;2024-01-15T02:32:38;1.00;99.90
24472;DHT22;12636;50.852;5.676;2024-01-15T02:35:05;0.90;99.90
24472;DHT22;12636;50.852;5.676;2024-01-15T02:37:32;1.00;99.90
24472;DHT22;12636;50.852;5.676;2024-01-15T02:39:59;1.00;99.90
24472;DHT22;12636;50.852;5.676;2024-01-15T02:42:27;1.10;99.90
24472;DHT22;12636;50.852;5.676;2024-01-15T02:44:54;1.00;99.90
24472;DHT22;12636;50.852;5.676;2024-01-15T02:47:21;1.10;99.90
24472;DHT22;12636;50.852;5.676;2024-01-15T02:49:47;1.10;99.90
24472;DHT22;12636;50.852;5.676;2024-01-15T02:52:14;1.10;99.90
24472;DHT22;12636;50.852;5.676;2024-01-15T02:54:41;1.10;99.90
24472;DHT22;12636;50.852;5.676;2024-01-15T02:57:08;1.10;99.90
24472;DHT22;12636;50.852;5.676;2024-01-15T02:59:36;1.10;99.90
24472;DHT22;12636;50.852;5.676;2024-01-15T03:02:03;1.10;99.90
24472;DHT22;12636;50.852;5.676;2024-01-15T03:04:30;1.10;99.90
24472;DHT22;12636;50.852;5.676;2024-01-15T03:06:57;1.20;99.90
24472;DHT22;12636;50.852;5.676;2024-01-15T03:09:24;1.20;99.90
24472;DHT22;12636;50.852;5.676;2024-01-15T03:11:51;1.20;99.90
24472;DHT22;12636;50.852;5.676;2024-01-15T03:14:18;1.20;99.90
24472;DHT22;12636;50.852;5.676;2024-01-15T03:16:47;1.20;99.90
24472;DHT22;12636;50.852;5.676;2024-01-15T03:19:14;1.20;99.90
24472;DHT22;12636;50.852;5.676;2024-01-15T03:21:40;1.20;99.90
24472;DHT22;12636;50.852;5.676;2024-01-15T03:24:07;1.20;99.90
24472;DHT22;12636;50.852;5.676;2024-01-15T03:26:34;1.20;99.90
24472;DHT22;12636;50.852;5.676;2024-01-15T03:29:01;1.20;99.90
24472;DHT22;12636;50.852;5.676;2024-01-15T03:31:28;1.20;99.90
24472;DHT22;12636;50.852;5.676;2024-01-15T03:33:56;1.20;99.90
24472;DHT22;12636;50.852;5.676;2024-01-15T03:36:23;1.20;99.90
24472;DHT22;12636;50.852;5.676;2024-01-15T03:38:50;1.30;99.90
24472;DHT22;12636;50.852;5.676;2024-01-15T03:41:17;1.30;99.90
24472;DHT22;12636;50.852;5.676;2024-01-15T03:43:44;1.30;99.90
24472;DHT22;12636;50.852;5.676;2024-01-15T03:46:11;1.30;99.90
24472;DHT22;12636;50.852;5.676;2024-01-15T03:48:38;1.20;99.90
24472;DHT22;12636;50.852;5.676;2024-01-15T03:51:06;1.20;99.90
24472;DHT22;12636;50.852;5.676;2024-01-15T03:53:33;1.30;99.90
24472;DHT22;12636;50.852;5.676;2024-01-15T03:56:00;1.30;99.90
24472;DHT22;12636;50.852;5.676;2024-01-15T03:58:27;1.30;99.90
24472;DHT22;12636;50.852;5.676;2024-01-15T04:00:53;1.20;99.90
24472;DHT22;12636;50.852;5.676;2024-01-15T04:03:20;1.20;99.90
24472;DHT22;12636;50.852;5.676;2024-01-15T04:05:47;1.20;99.90
24472;DHT22;12636;50.852;5.676;2024-01-15T04:08:15;1.20;99.90
24472;DHT22;12636;50.852;5.676;2024-01-15T04:10:42;1.20;99.90
24472;DHT22;12636;50.852;5.676;2024-01-15T04:13:09;1.20;99.90
24472;DHT22;12636;50.852;5.676;2024-01-15T04:15:36;1.20;99.90
24472;DHT22;12636;50.852;5.676;2024-01-15T04:18:03;1.20;99.90
24472;DHT22;12636;50.852;5.676;2024-01-15T04:20:30;1.20;99.90
24472;DHT22;12636;50.852;5.676;2024-01-15T04:22:57;1.20;99.90
24472;DHT22;12636;50.852;5.676;2024-01-15T04:25:25;1.20;99.90
24472;DHT22;12636;50.852;5.676;2024-01-15T04:27:52;1.30;99.90
24472;DHT22;12636;50.852;5.676;2024-01-15T04:30:19;1.30;99.90
24472;DHT22;12636;50.852;5.676;2024-01-15T04:32:46;1.30;99.90
24472;DHT22;12636;50.852;5.676;2024-01-15T04:35:12;1.30;99.90
24472;DHT22;12636;50.852;5.676;2024-01-15T04:37:39;1.30;99.90
24472;DHT22;12636;50.852;5.676;2024-01-15T04:40:07;1.30;99.90
24472;DHT22;12636;50.852;5.676;2024-01-15T04:42:36;1.30;99.90
24472;DHT22;12636;50.852;5.676;2024-01-15T04:45:03;1.30;99.90
24472;DHT22;12636;50.852;5.676;2024-01-15T04:47:30;1.30;99.90
24472;DHT22;12636;50.852;5.676;2024-01-15T04:49:57;1.30;99.90
24472;DHT22;12636;50.852;5.676;2024-01-15T04:52:24;1.30;99.90
24472;DHT22;12636;50.852;5.676;2024-01-15T04:54:51;1.20;99.90
24472;DHT22;12636;50.852;5.676;2024-01-15T04:57:18;1.20;99.90
24472;DHT22;12636;50.852;5.676;2024-01-15T04:59:46;1.10;99.90
24472;DHT22;12636;50.852;5.676;2024-01-15T05:02:13;1.20;99.90
24472;DHT22;12636;50.852;5.676;2024-01-15T05:04:39;1.20;99.90
24472;DHT22;12636;50.852;5.676;2024-01-15T05:07:06;1.20;99.90
24472;DHT22;12636;50.852;5.676;2024-01-15T05:09:34;1.20;99.90
24472;DHT22;12636;50.852;5.676;2024-01-15T05:12:00;1.20;99.90
24472;DHT22;12636;50.852;5.676;2024-01-15T05:14:27;1.20;99.90
24472;DHT22;12636;50.852;5.676;2024-01-15T05:16:56;1.20;99.90
24472;DHT22;12636;50.852;5.676;2024-01-15T05:19:22;1.20;99.90
24472;DHT22;12636;50.852;5.676;2024-01-15T05:21:49;1.20;99.90
24472;DHT22;12636;50.852;5.676;2024-01-15T05:24:16;1.20;99.90
24472;DHT22;12636;50.852;5.676;2024-01-15T05:26:43;1.20;99.90
24472;DHT22;12636;50.852;5.676;2024-01-15T05:29:10;1.20;99.90
24472;DHT22;12636;50.852;5.676;2024-01-15T05:31:37;1.10;99.90
24472;DHT22;12636;50.852;5.676;2024-01-15T05:34:05;1.20;99.90
24472;DHT22;12636;50.852;5.676;2024-01-15T05:36:32;1.10;99.90
24472;DHT22;12636;50.852;5.676;2024-01-15T05:38:59;1.20;99.90
24472;DHT22;12636;50.852;5.676;2024-01-15T05:41:26;1.10;99.90
24472;DHT22;12636;50.852;5.676;2024-01-15T05:43:53;1.10;99.90
24472;DHT22;12636;50.852;5.676;2024-01-15T05:46:20;1.10;99.90
24472;DHT22;12636;50.852;5.676;2024-01-15T05:48:46;1.10;99.90
24472;DHT22;12636;50.852;5.676;2024-01-15T05:51:15;1.20;99.90
24472;DHT22;12636;50.852;5.676;2024-01-15T05:53:41;1.20;99.90
24472;DHT22;12636;50.852;5.676;2024-01-15T05:56:10;1.20;99.90
24472;DHT22;12636;50.852;5.676;2024-01-15T05:58:37;1.30;99.90
24472;DHT22;12636;50.852;5.676;2024-01-15T06:01:04;1.20;99.90
24472;DHT22;12636;50.852;5.676;2024-01-15T06:03:30;1.20;99.90
24472;DHT22;12636;50.852;5.676;2024-01-15T06:05:57;1.20;99.90
24472;DHT22;12636;50.852;5.676;2024-01-15T06:08:26;1.10;99.90
24472;DHT22;12636;50.852;5.676;2024-01-15T06:10:53;1.10;99.90
24472;DHT22;12636;50.852;5.676;2024-01-15T06:13:20;1.00;99.90
24472;DHT22;12636;50.852;5.676;2024-01-15T06:15:47;1.00;99.90
24472;DHT22;12636;50.852;5.676;2024-01-15T06:18:13;1.10;99.90
24472;DHT22;12636;50.852;5.676;2024-01-15T06:20:40;1.10;99.90
24472;DHT22;12636;50.852;5.676;2024-01-15T06:23:08;1.00;99.90
24472;DHT22;12636;50.852;5.676;2024-01-15T06:25:36;1.00;99.90
24472;DHT22;12636;50.852;5.676;2024-01-15T06:28:03;1.00;99.90
24472;DHT22;12636;50.852;5.676;2024-01-15T06:30:30;1.00;99.90
24472;DHT22;12636;50.852;5.676;2024-01-15T06:32:57;1.00;99.90
24472;DHT22;12636;50.852;5.676;2024-01-15T06:35:24;1.00;99.90
24472;DHT22;12636;50.852;5.676;2024-01-15T06:37:51;1.00;99.90
24472;DHT22;12636;50.852;5.676;2024-01-15T06:40:18;1.00;99.90
24472;DHT22;12636;50.852;5.676;2024-01-15T06:42:46;1.00;99.90
24472;DHT22;12636;50.852;5.676;2024-01-15T06:45:13;1.00;99.90
24472;DHT22;12636;50.852;5.676;2024-01-15T06:47:40;0.90;99.90
24472;DHT22;12636;50.852;5.676;2024-01-15T06:50:07;0.90;99.90
24472;DHT22;12636;50.852;5.676;2024-01-15T06:52:34;0.90;99.90
24472;DHT22;12636;50.852;5.676;2024-01-15T06:55:02;0.90;99.90
24472;DHT22;12636;50.852;5.676;2024-01-15T06:57:29;0.80;99.90
24472;DHT22;12636;50.852;5.676;2024-01-15T06:59:57;0.80;99.90
24472;DHT22;12636;50.852;5.676;2024-01-15T07:02:24;0.80;99.90
24472;DHT22;12636;50.852;5.676;2024-01-15T07:04:52;0.70;99.90
24472;DHT22;12636;50.852;5.676;2024-01-15T07:07:19;0.80;99.90
24472;DHT22;12636;50.852;5.676;2024-01-15T07:09:46;0.80;99.90
24472;DHT22;12636;50.852;5.676;2024-01-15T07:12:12;0.90;99.90
24472;DHT22;12636;50.852;5.676;2024-01-15T07:14:39;0.90;99.90
24472;DHT22;12636;50.852;5.676;2024-01-15T07:17:07;0.90;99.90
24472;DHT22;12636;50.852;5.676;2024-01-15T07:19:34;1.00;99.90
24472;DHT22;12636;50.852;5.676;2024-01-15T07:22:02;1.00;99.90
24472;DHT22;12636;50.852;5.676;2024-01-15T07:24:28;1.00;99.90
24472;DHT22;12636;50.852;5.676;2024-01-15T07:26:55;1.00;99.90
24472;DHT22;12636;50.852;5.676;2024-01-15T07:29:22;1.00;99.90
24472;DHT22;12636;50.852;5.676;2024-01-15T07:31:49;1.00;99.90
24472;DHT22;12636;50.852;5.676;2024-01-15T07:34:18;1.00;99.90
24472;DHT22;12636;50.852;5.676;2024-01-15T07:36:45;1.10;99.90
24472;DHT22;12636;50.852;5.676;2024-01-15T07:39:11;1.20;99.90
24472;DHT22;12636;50.852;5.676;2024-01-15T07:41:39;1.20;99.90
24472;DHT22;12636;50.852;5.676;2024-01-15T07:44:06;1.20;99.90
24472;DHT22;12636;50.852;5.676;2024-01-15T07:46:33;1.20;99.90
24472;DHT22;12636;50.852;5.676;2024-01-15T07:48:59;1.30;99.90
24472;DHT22;12636;50.852;5.676;2024-01-15T07:51:28;1.30;99.90
24472;DHT22;12636;50.852;5.676;2024-01-15T07:53:55;1.30;99.90
24472;DHT22;12636;50.852;5.676;2024-01-15T07:56:22;1.30;99.90
24472;DHT22;12636;50.852;5.676;2024-01-15T07:58:49;1.30;99.90
24472;DHT22;12636;50.852;5.676;2024-01-15T08:01:15;1.30;99.90
24472;DHT22;12636;50.852;5.676;2024-01-15T08:03:42;1.30;99.90
24472;DHT22;12636;50.852;5.676;2024-01-15T08:06:09;1.40;99.90
24472;DHT22;12636;50.852;5.676;2024-01-15T08:08:38;1.40;99.90
24472;DHT22;12636;50.852;5.676;2024-01-15T08:11:05;1.40;99.90
24472;DHT22;12636;50.852;5.676;2024-01-15T08:13:32;1.40;99.90
24472;DHT22;12636;50.852;5.676;2024-01-15T08:15:58;1.40;99.90
24472;DHT22;12636;50.852;5.676;2024-01-15T08:18:25;1.40;99.90
24472;DHT22;12636;50.852;5.676;2024-01-15T08:20:52;1.50;99.90
24472;DHT22;12636;50.852;5.676;2024-01-15T08:23:19;1.50;99.90
24472;DHT22;12636;50.852;5.676;2024-01-15T08:25:48;1.60;99.90
24472;DHT22;12636;50.852;5.676;2024-01-15T08:28:16;1.60;99.90
24472;DHT22;12636;50.852;5.676;2024-01-15T08:30:43;1.60;99.90
24472;DHT22;12636;50.852;5.676;2024-01-15T08:33:10;1.60;99.90
24472;DHT22;12636;50.852;5.676;2024-01-15T08:35:37;1.60;99.90
24472;DHT22;12636;50.852;5.676;2024-01-15T08:38:03;1.70;99.90
24472;DHT22;12636;50.852;5.676;2024-01-15T08:40:31;1.70;99.90
24472;DHT22;12636;50.852;5.676;2024-01-15T08:42:59;1.70;99.90
24472;DHT22;12636;50.852;5.676;2024-01-15T08:45:27;1.70;99.90
24472;DHT22;12636;50.852;5.676;2024-01-15T08:47:54;1.70;99.90
24472;DHT22;12636;50.852;5.676;2024-01-15T08:50:21;1.60;99.90
24472;DHT22;12636;50.852;5.676;2024-01-15T08:52:48;1.40;99.90
24472;DHT22;12636;50.852;5.676;2024-01-15T08:55:15;1.40;99.90
24472;DHT22;12636;50.852;5.676;2024-01-15T08:57:41;1.30;99.90
24472;DHT22;12636;50.852;5.676;2024-01-15T09:00:11;1.30;99.90
24472;DHT22;12636;50.852;5.676;2024-01-15T09:02:38;1.30;99.90
24472;DHT22;12636;50.852;5.676;2024-01-15T09:05:05;1.20;99.90
24472;DHT22;12636;50.852;5.676;2024-01-15T09:07:32;1.20;99.90
24472;DHT22;12636;50.852;5.676;2024-01-15T09:09:59;1.20;99.90
24472;DHT22;12636;50.852;5.676;2024-01-15T09:12:27;1.20;99.90
24472;DHT22;12636;50.852;5.676;2024-01-15T09:14:54;1.10;99.90
24472;DHT22;12636;50.852;5.676;2024-01-15T09:17:23;1.10;99.90
24472;DHT22;12636;50.852;5.676;2024-01-15T09:19:50;1.00;99.90
24472;DHT22;12636;50.852;5.676;2024-01-15T09:22:16;1.00;99.90
24472;DHT22;12636;50.852;5.676;2024-01-15T09:24:44;1.00;99.90
24472;DHT22;12636;50.852;5.676;2024-01-15T09:27:11;1.00;99.90
24472;DHT22;12636;50.852;5.676;2024-01-15T09:29:38;1.10;99.90
24472;DHT22;12636;50.852;5.676;2024-01-15T09:32:07;1.10;99.90
24472;DHT22;12636;50.852;5.676;2024-01-15T09:34:35;1.10;99.90
24472;DHT22;12636;50.852;5.676;2024-01-15T09:37:02;1.00;99.90
24472;DHT22;12636;50.852;5.676;2024-01-15T09:39:29;1.00;99.90
24472;DHT22;12636;50.852;5.676;2024-01-15T09:41:57;1.10;99.90
24472;DHT22;12636;50.852;5.676;2024-01-15T09:44:24;1.10;99.90
24472;DHT22;12636;50.852;5.676;2024-01-15T09:46:52;1.10;99.90
24472;DHT22;12636;50.852;5.676;2024-01-15T09:49:19;1.10;99.90
24472;DHT22;12636;50.852;5.676;2024-01-15T09:51:47;1.20;99.90
24472;DHT22;12636;50.852;5.676;2024-01-15T09:54:15;1.20;99.90
24472;DHT22;12636;50.852;5.676;2024-01-15T09:56:42;1.30;99.90
24472;DHT22;12636;50.852;5.676;2024-01-15T09:59:12;1.30;99.90
24472;DHT22;12636;50.852;5.676;2024-01-15T10:01:40;1.40;99.90
24472;DHT22;12636;50.852;5.676;2024-01-15T10:04:07;1.50;99.90
24472;DHT22;12636;50.852;5.676;2024-01-15T10:06:34;1.50;99.90
24472;DHT22;12636;50.852;5.676;2024-01-15T10:09:03;1.60;99.90
24472;DHT22;12636;50.852;5.676;2024-01-15T10:11:30;1.70;99.90
24472;DHT22;12636;50.852;5.676;2024-01-15T10:13:57;1.70;99.90
24472;DHT22;12636;50.852;5.676;2024-01-15T10:16:23;1.80;99.90
24472;DHT22;12636;50.852;5.676;2024-01-15T10:18:50;1.80;99.90
24472;DHT22;12636;50.852;5.676;2024-01-15T10:21:17;1.80;99.90
24472;DHT22;12636;50.852;5.676;2024-01-15T10:23:44;1.90;99.90
24472;DHT22;12636;50.852;5.676;2024-01-15T10:26:12;1.90;99.90
24472;DHT22;12636;50.852;5.676;2024-01-15T10:28:40;2.00;99.90
24472;DHT22;12636;50.852;5.676;2024-01-15T10:31:08;2.10;99.90
24472;DHT22;12636;50.852;5.676;2024-01-15T10:33:35;2.10;99.90
24472;DHT22;12636;50.852;5.676;2024-01-15T10:36:02;2.20;99.90
24472;DHT22;12636;50.852;5.676;2024-01-15T10:38:29;2.30;99.90
24472;DHT22;12636;50.852;5.676;2024-01-15T10:40:56;2.30;99.90
24472;DHT22;12636;50.852;5.676;2024-01-15T10:43:25;2.40;99.90
24472;DHT22;12636;50.852;5.676;2024-01-15T10:45:52;2.50;99.90
24472;DHT22;12636;50.852;5.676;2024-01-15T10:48:19;2.60;99.90
24472;DHT22;12636;50.852;5.676;2024-01-15T10:50:46;2.70;99.90
24472;DHT22;12636;50.852;5.676;2024-01-15T10:53:14;2.60;99.90
24472;DHT22;12636;50.852;5.676;2024-01-15T10:55:41;2.50;99.90
24472;DHT22;12636;50.852;5.676;2024-01-15T10:58:08;2.50;99.90
24472;DHT22;12636;50.852;5.676;2024-01-15T11:00:37;2.70;99.90
24472;DHT22;12636;50.852;5.676;2024-01-15T11:03:04;2.80;99.90
24472;DHT22;12636;50.852;5.676;2024-01-15T11:05:33;2.90;99.90
24472;DHT22;12636;50.852;5.676;2024-01-15T11:08:00;3.40;56.10
24472;DHT22;12636;50.852;5.676;2024-01-15T11:10:40;3.90;1.00
24472;DHT22;12636;50.852;5.676;2024-01-15T11:13:08;4.40;1.00
24472;DHT22;12636;50.852;5.676;2024-01-15T11:18:19;4.00;1.00
24472;DHT22;12636;50.852;5.676;2024-01-15T11:23:42;4.10;99.90
24472;DHT22;12636;50.852;5.676;2024-01-15T11:28:51;4.70;99.90
24472;DHT22;12636;50.852;5.676;2024-01-15T11:31:18;5.30;1.00
24472;DHT22;12636;50.852;5.676;2024-01-15T11:33:49;5.10;1.00
24472;DHT22;12636;50.852;5.676;2024-01-15T11:36:16;5.90;99.90
24472;DHT22;12636;50.852;5.676;2024-01-15T11:38:43;6.00;1.00
24472;DHT22;12636;50.852;5.676;2024-01-15T11:41:13;6.20;99.90
24472;DHT22;12636;50.852;5.676;2024-01-15T11:43:40;6.40;99.90
24472;DHT22;12636;50.852;5.676;2024-01-15T11:46:08;5.50;99.90
24472;DHT22;12636;50.852;5.676;2024-01-15T11:48:41;4.60;1.00
24472;DHT22;12636;50.852;5.676;2024-01-15T11:51:11;4.20;1.00
24472;DHT22;12636;50.852;5.676;2024-01-15T11:53:40;4.00;1.00
24472;DHT22;12636;50.852;5.676;2024-01-15T11:56:11;3.70;1.00
24472;DHT22;12636;50.852;5.676;2024-01-15T11:58:41;3.60;99.90
24472;DHT22;12636;50.852;5.676;2024-01-15T12:01:08;3.50;1.00
24472;DHT22;12636;50.852;5.676;2024-01-15T12:03:35;3.40;99.90
24472;DHT22;12636;50.852;5.676;2024-01-15T12:06:02;3.20;99.90
24472;DHT22;12636;50.852;5.676;2024-01-15T12:08:33;3.10;1.00
24472;DHT22;12636;50.852;5.676;2024-01-15T12:11:00;3.00;1.00
24472;DHT22;12636;50.852;5.676;2024-01-15T12:13:27;2.70;99.90
24472;DHT22;12636;50.852;5.676;2024-01-15T12:15:54;2.60;1.00
24472;DHT22;12636;50.852;5.676;2024-01-15T12:18:21;2.30;1.00
24472;DHT22;12636;50.852;5.676;2024-01-15T12:20:48;2.10;1.00
24472;DHT22;12636;50.852;5.676;2024-01-15T12:23:15;1.80;1.00
24472;DHT22;12636;50.852;5.676;2024-01-15T12:25:43;1.60;75.50
24472;DHT22;12636;50.852;5.676;2024-01-15T12:28:10;1.50;99.90
24472;DHT22;12636;50.852;5.676;2024-01-15T12:30:37;1.50;99.90
24472;DHT22;12636;50.852;5.676;2024-01-15T12:33:05;1.40;99.90
24472;DHT22;12636;50.852;5.676;2024-01-15T12:35:33;1.30;99.90
24472;DHT22;12636;50.852;5.676;2024-01-15T12:38:00;1.20;99.90
24472;DHT22;12636;50.852;5.676;2024-01-15T12:40:28;1.10;99.90
24472;DHT22;12636;50.852;5.676;2024-01-15T12:42:56;1.10;99.90
24472;DHT22;12636;50.852;5.676;2024-01-15T12:45:23;1.10;99.90
24472;DHT22;12636;50.852;5.676;2024-01-15T12:47:50;1.10;99.90
24472;DHT22;12636;50.852;5.676;2024-01-15T12:50:17;1.10;99.90
24472;DHT22;12636;50.852;5.676;2024-01-15T12:52:44;1.00;99.90
24472;DHT22;12636;50.852;5.676;2024-01-15T12:55:11;1.00;99.90
24472;DHT22;12636;50.852;5.676;2024-01-15T12:57:38;1.00;99.90
24472;DHT22;12636;50.852;5.676;2024-01-15T13:00:07;1.00;99.90
24472;DHT22;12636;50.852;5.676;2024-01-15T13:02:39;1.10;99.90
24472;DHT22;12636;50.852;5.676;2024-01-15T13:05:07;1.20;99.90
24472;DHT22;12636;50.852;5.676;2024-01-15T13:07:35;1.20;99.90
24472;DHT22;12636;50.852;5.676;2024-01-15T13:10:02;1.30;99.90
24472;DHT22;12636;50.852;5.676;2024-01-15T13:12:29;1.50;99.90
24472;DHT22;12636;50.852;5.676;2024-01-15T13:14:56;1.70;99.90
24472;DHT22;12636;50.852;5.676;2024-01-15T13:17:25;2.20;99.90
24472;DHT22;12636;50.852;5.676;2024-01-15T13:19:52;2.30;99.90
24472;DHT22;12636;50.852;5.676;2024-01-15T13:22:18;2.70;99.90
24472;DHT22;12636;50.852;5.676;2024-01-15T13:24:45;2.80;99.90
24472;DHT22;12636;50.852;5.676;2024-01-15T13:27:12;2.40;99.90
24472;DHT22;12636;50.852;5.676;2024-01-15T13:29:39;2.20;99.90
24472;DHT22;12636;50.852;5.676;2024-01-15T13:32:06;2.20;99.90
24472;DHT22;12636;50.852;5.676;2024-01-15T13:34:34;2.10;99.90
24472;DHT22;12636;50.852;5.676;2024-01-15T13:37:01;2.00;99.90
24472;DHT22;12636;50.852;5.676;2024-01-15T13:39:29;2.00;99.90
24472;DHT22;12636;50.852;5.676;2024-01-15T13:41:58;2.00;99.90
24472;DHT22;12636;50.852;5.676;2024-01-15T13:44:25;1.90;99.90
24472;DHT22;12636;50.852;5.676;2024-01-15T13:46:53;1.80;99.90
24472;DHT22;12636;50.852;5.676;2024-01-15T13:49:20;1.80;99.90
24472;DHT22;12636;50.852;5.676;2024-01-15T13:51:48;1.80;99.90
24472;DHT22;12636;50.852;5.676;2024-01-15T13:54:15;1.80;99.90
24472;DHT22;12636;50.852;5.676;2024-01-15T13:56:42;1.80;99.90
24472;DHT22;12636;50.852;5.676;2024-01-15T13:59:09;1.80;99.90
24472;DHT22;12636;50.852;5.676;2024-01-15T14:01:36;1.80;99.90
24472;DHT22;12636;50.852;5.676;2024-01-15T14:04:03;1.70;99.90
24472;DHT22;12636;50.852;5.676;2024-01-15T14:06:30;1.70;99.90
24472;DHT22;12636;50.852;5.676;2024-01-15T14:08:59;1.70;99.90
24472;DHT22;12636;50.852;5.676;2024-01-15T14:11:25;1.70;99.90
24472;DHT22;12636;50.852;5.676;2024-01-15T14:13:52;1.60;99.90
24472;DHT22;12636;50.852;5.676;2024-01-15T14:16:20;1.60;99.90
24472;DHT22;12636;50.852;5.676;2024-01-15T14:18:46;1.60;99.90
24472;DHT22;12636;50.852;5.676;2024-01-15T14:21:13;1.60;99.90
24472;DHT22;12636;50.852;5.676;2024-01-15T14:23:41;1.60;99.90
24472;DHT22;12636;50.852;5.676;2024-01-15T14:26:09;1.70;99.90
24472;DHT22;12636;50.852;5.676;2024-01-15T14:28:36;1.60;99.90
24472;DHT22;12636;50.852;5.676;2024-01-15T14:31:04;1.50;99.90
24472;DHT22;12636;50.852;5.676;2024-01-15T14:33:31;1.60;99.90
24472;DHT22;12636;50.852;5.676;2024-01-15T14:35:58;1.60;99.90
24472;DHT22;12636;50.852;5.676;2024-01-15T14:38:25;1.60;99.90
24472;DHT22;12636;50.852;5.676;2024-01-15T14:40:52;1.60;99.90
24472;DHT22;12636;50.852;5.676;2024-01-15T14:43:20;1.60;99.90
24472;DHT22;12636;50.852;5.676;2024-01-15T14:45:47;1.60;99.90
24472;DHT22;12636;50.852;5.676;2024-01-15T14:48:14;1.50;99.90
24472;DHT22;12636;50.852;5.676;2024-01-15T14:50:41;1.50;99.90
24472;DHT22;12636;50.852;5.676;2024-01-15T14:53:08;1.50;99.90
24472;DHT22;12636;50.852;5.676;2024-01-15T14:55:35;1.50;99.90
24472;DHT22;12636;50.852;5.676;2024-01-15T14:58:02;1.50;99.90
24472;DHT22;12636;50.852;5.676;2024-01-15T15:00:30;1.50;99.90
24472;DHT22;12636;50.852;5.676;2024-01-15T15:02:57;1.50;99.90
24472;DHT22;12636;50.852;5.676;2024-01-15T15:05:24;1.50;99.90
24472;DHT22;12636;50.852;5.676;2024-01-15T15:07:52;1.50;99.90
24472;DHT22;12636;50.852;5.676;2024-01-15T15:10:19;1.40;99.90
24472;DHT22;12636;50.852;5.676;2024-01-15T15:12:45;1.30;99.90
24472;DHT22;12636;50.852;5.676;2024-01-15T15:15:13;1.30;99.90
24472;DHT22;12636;50.852;5.676;2024-01-15T15:17:43;1.30;99.90
24472;DHT22;12636;50.852;5.676;2024-01-15T15:20:11;1.30;99.90
24472;DHT22;12636;50.852;5.676;2024-01-15T15:22:38;1.40;99.90
24472;DHT22;12636;50.852;5.676;2024-01-15T15:25:05;1.30;99.90
24472;DHT22;12636;50.852;5.676;2024-01-15T15:27:34;1.40;99.90
24472;DHT22;12636;50.852;5.676;2024-01-15T15:30:01;1.40;99.90
24472;DHT22;12636;50.852;5.676;2024-01-15T15:32:29;1.40;99.90
24472;DHT22;12636;50.852;5.676;2024-01-15T15:34:57;1.40;99.90
24472;DHT22;12636;50.852;5.676;2024-01-15T15:37:24;1.40;99.90
24472;DHT22;12636;50.852;5.676;2024-01-15T15:39:51;1.40;99.90
24472;DHT22;12636;50.852;5.676;2024-01-15T15:42:18;1.40;99.90
24472;DHT22;12636;50.852;5.676;2024-01-15T15:44:45;1.40;99.90
24472;DHT22;12636;50.852;5.676;2024-01-15T15:47:12;1.40;99.90
24472;DHT22;12636;50.852;5.676;2024-01-15T15:49:40;1.30;99.90
24472;DHT22;12636;50.852;5.676;2024-01-15T15:52:09;1.30;99.90
24472;DHT22;12636;50.852;5.676;2024-01-15T15:54:36;1.20;99.90
24472;DHT22;12636;50.852;5.676;2024-01-15T15:57:04;1.20;99.90